sensor_id;sensor_type;location;lat;lon;timestamp;pressure;altitude;pressure_sealevel;temperature;humidity
4576;BME280;2300;51.874;8.430;2023-03-18T00:01:08;100077.38;;;10.35;86.64
4576;BME280;2300;51.874;8.430;2023-03-18T00:03:35;100069.28;;;10.28;86.62
4576;BME280;2300;51.874;8.430;2023-03-18T00:06:06;100069.66;;;10.20;86.72
4576;BME280;2300;51.874;8.430;2023-03-18T00:08:33;100071.09;;;10.11;87.99
4576;BME280;2300;51.874;8.430;2023-03-18T00:10:59;100070.53;;;10.09;88.44
4576;BME280;2300;51.874;8.430;2023-03-18T00:13:26;100072.88;;;10.17;88.31
4576;BME280;2300;51.874;8.430;2023-03-18T00:15:53;100074.97;;;9.98;89.05
4576;BME280;2300;51.874;8.430;2023-03-18T00:18:19;100070.13;;;10.17;89.59
4576;BME280;2300;51.874;8.430;2023-03-18T00:20:45;100077.69;;;10.10;89.63
4576;BME280;2300;51.874;8.430;2023-03-18T00:23:13;100072.97;;;9.94;90.35
4576;BME280;2300;51.874;8.430;2023-03-18T00:25:41;100076.19;;;9.91;91.12
4576;BME280;2300;51.874;8.430;2023-03-18T00:28:08;100085.25;;;9.91;91.47
4576;BME280;2300;51.874;8.430;2023-03-18T00:30:37;100071.28;;;9.93;91.82
4576;BME280;2300;51.874;8.430;2023-03-18T00:33:04;100076.06;;;9.86;92.28
4576;BME280;2300;51.874;8.430;2023-03-18T00:35:31;100081.66;;;9.91;93.26
4576;BME280;2300;51.874;8.430;2023-03-18T00:37:58;100079.88;;;9.85;93.07
4576;BME280;2300;51.874;8.430;2023-03-18T00:40:27;100061.47;;;9.69;93.76
4576;BME280;2300;51.874;8.430;2023-03-18T00:43:07;100078.34;;;9.89;94.50
4576;BME280;2300;51.874;8.430;2023-03-18T00:45:36;100085.53;;;9.78;95.40
4576;BME280;2300;51.874;8.430;2023-03-18T00:48:03;100080.03;;;9.78;95.83
4576;BME280;2300;51.874;8.430;2023-03-18T00:50:29;100083.63;;;9.79;96.04
4576;BME280;2300;51.874;8.430;2023-03-18T00:52:56;100083.00;;;9.77;96.82
4576;BME280;2300;51.874;8.430;2023-03-18T00:55:24;100073.72;;;9.78;97.10
4576;BME280;2300;51.874;8.430;2023-03-18T00:57:53;100068.25;;;9.78;97.64
4576;BME280;2300;51.874;8.430;2023-03-18T01:00:20;100078.13;;;9.79;97.92
4576;BME280;2300;51.874;8.430;2023-03-18T01:02:46;100080.16;;;9.83;97.78
4576;BME280;2300;51.874;8.430;2023-03-18T01:05:14;100073.22;;;9.81;98.48
4576;BME280;2300;51.874;8.430;2023-03-18T01:07:41;100078.25;;;9.84;98.14
4576;BME280;2300;51.874;8.430;2023-03-18T01:10:09;100078.25;;;9.84;98.41
4576;BME280;2300;51.874;8.430;2023-03-18T01:12:35;100074.41;;;9.85;99.02
4576;BME280;2300;51.874;8.430;2023-03-18T01:15:04;100044.13;;;9.80;98.97
4576;BME280;2300;51.874;8.430;2023-03-18T01:17:31;100062.97;;;9.88;99.50
4576;BME280;2300;51.874;8.430;2023-03-18T01:19:57;100059.63;;;9.86;99.44
4576;BME280;2300;51.874;8.430;2023-03-18T01:22:24;100058.44;;;9.82;99.36
4576;BME280;2300;51.874;8.430;2023-03-18T01:24:50;100059.28;;;9.82;100.00
4576;BME280;2300;51.874;8.430;2023-03-18T01:27:17;100056.66;;;9.76;100.00
4576;BME280;2300;51.874;8.430;2023-03-18T01:29:43;100069.66;;;9.80;100.00
4576;BME280;2300;51.874;8.430;2023-03-18T01:32:12;100075.50;;;9.84;100.00
4576;BME280;2300;51.874;8.430;2023-03-18T01:34:38;100067.63;;;9.76;100.00
4576;BME280;2300;51.874;8.430;2023-03-18T01:37:06;100061.78;;;9.84;100.00
4576;BME280;2300;51.874;8.430;2023-03-18T01:39:32;100042.28;;;9.69;100.00
4576;BME280;2300;51.874;8.430;2023-03-18T01:41:59;100063.22;;;9.75;100.00
4576;BME280;2300;51.874;8.430;2023-03-18T01:44:26;100051.81;;;9.66;100.00
4576;BME280;2300;51.874;8.430;2023-03-18T01:46:53;100049.19;;;9.59;100.00
4576;BME280;2300;51.874;8.430;2023-03-18T01:49:26;100040.53;;;9.51;100.00
4576;BME280;2300;51.874;8.430;2023-03-18T01:51:55;100060.16;;;9.59;100.00
4576;BME280;2300;51.874;8.430;2023-03-18T01:54:23;100055.28;;;9.62;100.00
4576;BME280;2300;51.874;8.430;2023-03-18T01:56:51;100054.22;;;9.63;100.00
4576;BME280;2300;51.874;8.430;2023-03-18T01:59:19;100060.16;;;9.59;100.00
4576;BME280;2300;51.874;8.430;2023-03-18T02:01:49;100060.53;;;9.63;100.00
4576;BME280;2300;51.874;8.430;2023-03-18T02:04:18;100055.66;;;9.53;100.00
4576;BME280;2300;51.874;8.430;2023-03-18T02:06:46;100056.00;;;9.57;100.00
4576;BME280;2300;51.874;8.430;2023-03-18T02:09:13;100044.09;;;9.40;100.00
4576;BME280;2300;51.874;8.430;2023-03-18T02:11:43;100058.03;;;9.50;100.00
4576;BME280;2300;51.874;8.430;2023-03-18T02:14:13;100061.16;;;9.53;100.00
4576;BME280;2300;51.874;8.430;2023-03-18T02:16:42;100056.84;;;9.57;100.00
4576;BME280;2300;51.874;8.430;2023-03-18T02:19:17;100056.84;;;9.57;100.00
4576;BME280;2300;51.874;8.430;2023-03-18T02:21:52;100046.56;;;9.65;100.00
4576;BME280;2300;51.874;8.430;2023-03-18T02:24:30;100045.03;;;9.57;100.00
4576;BME280;2300;51.874;8.430;2023-03-18T02:27:02;100045.13;;;9.74;100.00
4576;BME280;2300;51.874;8.430;2023-03-18T02:29:35;100054.22;;;9.63;100.00
4576;BME280;2300;51.874;8.430;2023-03-18T02:32:03;100063.50;;;9.62;100.00
4576;BME280;2300;51.874;8.430;2023-03-18T02:34:32;100063.06;;;9.53;100.00
4576;BME280;2300;51.874;8.430;2023-03-18T02:36:59;100056.84;;;9.57;100.00
4576;BME280;2300;51.874;8.430;2023-03-18T02:39:26;100057.41;;;9.59;100.00
4576;BME280;2300;51.874;8.430;2023-03-18T02:41:54;100057.81;;;9.51;100.00
4576;BME280;2300;51.874;8.430;2023-03-18T02:44:22;100060.41;;;9.58;100.00
4576;BME280;2300;51.874;8.430;2023-03-18T02:46:53;100069.47;;;9.58;100.00
4576;BME280;2300;51.874;8.430;2023-03-18T02:49:22;100059.47;;;9.52;100.00
4576;BME280;2300;51.874;8.430;2023-03-18T02:51:49;100059.94;;;9.49;100.00
4576;BME280;2300;51.874;8.430;2023-03-18T02:54:18;100061.50;;;9.45;100.00
4576;BME280;2300;51.874;8.430;2023-03-18T02:56:45;100077.34;;;9.43;100.00
4576;BME280;2300;51.874;8.430;2023-03-18T02:59:12;100077.34;;;9.43;100.00
4576;BME280;2300;51.874;8.430;2023-03-18T03:01:40;100077.44;;;9.48;100.00
4576;BME280;2300;51.874;8.430;2023-03-18T03:04:09;100074.25;;;9.51;100.00
4576;BME280;2300;51.874;8.430;2023-03-18T03:06:36;100072.56;;;9.50;100.00
4576;BME280;2300;51.874;8.430;2023-03-18T03:09:03;100069.97;;;9.32;100.00
4576;BME280;2300;51.874;8.430;2023-03-18T03:11:30;100069.00;;;9.38;100.00
4576;BME280;2300;51.874;8.430;2023-03-18T03:13:57;100061.50;;;9.34;100.00
4576;BME280;2300;51.874;8.430;2023-03-18T03:16:23;100057.22;;;9.26;100.00
4576;BME280;2300;51.874;8.430;2023-03-18T03:18:50;100069.50;;;9.24;100.00
4576;BME280;2300;51.874;8.430;2023-03-18T03:21:18;100063.06;;;9.18;100.00
4576;BME280;2300;51.874;8.430;2023-03-18T03:23:45;100073.78;;;9.08;100.00
4576;BME280;2300;51.874;8.430;2023-03-18T03:26:12;100070.91;;;9.03;100.00
4576;BME280;2300;51.874;8.430;2023-03-18T03:28:39;100066.88;;;9.05;100.00
4576;BME280;2300;51.874;8.430;2023-03-18T03:31:05;100075.44;;;9.09;100.00
4576;BME280;2300;51.874;8.430;2023-03-18T03:33:33;100074.03;;;9.06;100.00
4576;BME280;2300;51.874;8.430;2023-03-18T03:35:59;100069.94;;;8.97;100.00
4576;BME280;2300;51.874;8.430;2023-03-18T03:38:27;100070.09;;;8.91;100.00
4576;BME280;2300;51.874;8.430;2023-03-18T03:40:53;100063.50;;;8.92;100.00
4576;BME280;2300;51.874;8.430;2023-03-18T03:43:20;100059.59;;;8.88;100.00
4576;BME280;2300;51.874;8.430;2023-03-18T03:45:46;100062.81;;;8.85;100.00
4576;BME280;2300;51.874;8.430;2023-03-18T03:48:13;100069.59;;;8.70;100.00
4576;BME280;2300;51.874;8.430;2023-03-18T03:50:39;100072.38;;;8.64;100.00
4576;BME280;2300;51.874;8.430;2023-03-18T03:53:06;100074.59;;;8.55;100.00
4576;BME280;2300;51.874;8.430;2023-03-18T03:55:33;100079.34;;;8.48;100.00
4576;BME280;2300;51.874;8.430;2023-03-18T03:58:00;100078.16;;;8.44;100.00
4576;BME280;2300;51.874;8.430;2023-03-18T04:00:27;100066.38;;;8.44;100.00
4576;BME280;2300;51.874;8.430;2023-03-18T04:02:53;100069.13;;;8.44;100.00
4576;BME280;2300;51.874;8.430;2023-03-18T04:05:22;100070.19;;;8.43;100.00
4576;BME280;2300;51.874;8.430;2023-03-18T04:07:49;100076.94;;;8.40;100.00
4576;BME280;2300;51.874;8.430;2023-03-18T04:10:17;100072.72;;;8.26;100.00
4576;BME280;2300;51.874;8.430;2023-03-18T04:12:47;100090.47;;;8.23;100.00
4576;BME280;2300;51.874;8.430;2023-03-18T04:15:18;100088.50;;;8.12;100.00
4576;BME280;2300;51.874;8.430;2023-03-18T04:17:45;100089.78;;;8.10;100.00
4576;BME280;2300;51.874;8.430;2023-03-18T04:20:13;100090.03;;;8.08;100.00
4576;BME280;2300;51.874;8.430;2023-03-18T04:22:40;100096.34;;;7.91;100.00
4576;BME280;2300;51.874;8.430;2023-03-18T04:25:07;100105.94;;;7.81;100.00
4576;BME280;2300;51.874;8.430;2023-03-18T04:27:35;100113.06;;;7.82;100.00
4576;BME280;2300;51.874;8.430;2023-03-18T04:30:04;100110.16;;;7.77;100.00
4576;BME280;2300;51.874;8.430;2023-03-18T04:32:31;100113.88;;;7.83;100.00
4576;BME280;2300;51.874;8.430;2023-03-18T04:34:57;100106.66;;;7.88;100.00
4576;BME280;2300;51.874;8.430;2023-03-18T04:37:24;100113.13;;;7.94;100.00
4576;BME280;2300;51.874;8.430;2023-03-18T04:39:51;100124.59;;;8.03;100.00
4576;BME280;2300;51.874;8.430;2023-03-18T04:42:17;100115.44;;;8.09;100.00
4576;BME280;2300;51.874;8.430;2023-03-18T04:44:44;100115.16;;;8.17;100.00
4576;BME280;2300;51.874;8.430;2023-03-18T04:47:13;100118.03;;;8.22;100.00
4576;BME280;2300;51.874;8.430;2023-03-18T04:49:39;100108.44;;;8.31;100.00
4576;BME280;2300;51.874;8.430;2023-03-18T04:52:07;100106.44;;;8.38;100.00
4576;BME280;2300;51.874;8.430;2023-03-18T04:54:33;100104.28;;;8.40;100.00
4576;BME280;2300;51.874;8.430;2023-03-18T04:57:01;100113.19;;;8.36;100.00
4576;BME280;2300;51.874;8.430;2023-03-18T04:59:29;100111.72;;;8.21;100.00
4576;BME280;2300;51.874;8.430;2023-03-18T05:01:56;100121.53;;;8.11;100.00
4576;BME280;2300;51.874;8.430;2023-03-18T05:04:25;100133.38;;;8.05;100.00
4576;BME280;2300;51.874;8.430;2023-03-18T05:06:51;100117.44;;;8.02;100.00
4576;BME280;2300;51.874;8.430;2023-03-18T05:09:17;100133.09;;;7.95;100.00
4576;BME280;2300;51.874;8.430;2023-03-18T05:11:44;100132.34;;;7.87;100.00
4576;BME280;2300;51.874;8.430;2023-03-18T05:14:10;100125.06;;;7.81;100.00
4576;BME280;2300;51.874;8.430;2023-03-18T05:16:37;100135.75;;;7.65;100.00
4576;BME280;2300;51.874;8.430;2023-03-18T05:19:04;100133.09;;;7.58;100.00
4576;BME280;2300;51.874;8.430;2023-03-18T05:21:31;100130.66;;;7.50;100.00
4576;BME280;2300;51.874;8.430;2023-03-18T05:23:58;100136.84;;;7.39;100.00
4576;BME280;2300;51.874;8.430;2023-03-18T05:26:25;100129.56;;;7.33;100.00
4576;BME280;2300;51.874;8.430;2023-03-18T05:28:51;100134.84;;;7.28;100.00
4576;BME280;2300;51.874;8.430;2023-03-18T05:31:18;100127.38;;;7.17;100.00
4576;BME280;2300;51.874;8.430;2023-03-18T05:33:45;100131.97;;;7.23;100.00
4576;BME280;2300;51.874;8.430;2023-03-18T05:36:12;100128.28;;;7.11;100.00
4576;BME280;2300;51.874;8.430;2023-03-18T05:38:40;100132.34;;;7.01;100.00
4576;BME280;2300;51.874;8.430;2023-03-18T05:41:06;100137.84;;;6.95;100.00
4576;BME280;2300;51.874;8.430;2023-03-18T05:43:33;100135.38;;;6.93;100.00
4576;BME280;2300;51.874;8.430;2023-03-18T05:45:59;100144.88;;;6.84;100.00
4576;BME280;2300;51.874;8.430;2023-03-18T05:48:25;100152.63;;;6.87;100.00
4576;BME280;2300;51.874;8.430;2023-03-18T05:50:52;100148.00;;;6.88;100.00
4576;BME280;2300;51.874;8.430;2023-03-18T05:53:18;100124.16;;;6.70;100.00
4576;BME280;2300;51.874;8.430;2023-03-18T05:55:47;100156.19;;;6.88;100.00
4576;BME280;2300;51.874;8.430;2023-03-18T05:58:14;100168.16;;;6.87;100.00
4576;BME280;2300;51.874;8.430;2023-03-18T06:00:40;100154.31;;;6.88;100.00
4576;BME280;2300;51.874;8.430;2023-03-18T06:03:07;100161.00;;;6.92;100.00
4576;BME280;2300;51.874;8.430;2023-03-18T06:05:34;100167.28;;;6.93;100.00
4576;BME280;2300;51.874;8.430;2023-03-18T06:08:00;100164.72;;;6.98;100.00
4576;BME280;2300;51.874;8.430;2023-03-18T06:10:27;100164.69;;;7.05;100.00
4576;BME280;2300;51.874;8.430;2023-03-18T06:12:54;100171.25;;;7.22;100.00
4576;BME280;2300;51.874;8.430;2023-03-18T06:15:21;100171.16;;;7.35;100.00
4576;BME280;2300;51.874;8.430;2023-03-18T06:17:48;100174.91;;;7.59;100.00
4576;BME280;2300;51.874;8.430;2023-03-18T06:20:15;100174.31;;;7.75;100.00
4576;BME280;2300;51.874;8.430;2023-03-18T06:22:42;100178.16;;;7.92;100.00
4576;BME280;2300;51.874;8.430;2023-03-18T06:25:13;100177.69;;;8.13;100.00
4576;BME280;2300;51.874;8.430;2023-03-18T06:27:39;100187.31;;;8.34;100.00
4576;BME280;2300;51.874;8.430;2023-03-18T06:30:09;100184.13;;;8.37;100.00
4576;BME280;2300;51.874;8.430;2023-03-18T06:32:35;100191.22;;;8.56;100.00
4576;BME280;2300;51.874;8.430;2023-03-18T06:35:02;100191.81;;;8.77;100.00
4576;BME280;2300;51.874;8.430;2023-03-18T06:37:29;100187.34;;;8.94;100.00
4576;BME280;2300;51.874;8.430;2023-03-18T06:39:55;100193.56;;;9.01;100.00
4576;BME280;2300;51.874;8.430;2023-03-18T06:42:22;100196.00;;;9.21;100.00
4576;BME280;2300;51.874;8.430;2023-03-18T06:44:50;100198.28;;;9.35;100.00
4576;BME280;2300;51.874;8.430;2023-03-18T06:47:19;100196.97;;;9.49;100.00
4576;BME280;2300;51.874;8.430;2023-03-18T06:49:46;100195.44;;;9.65;100.00
4576;BME280;2300;51.874;8.430;2023-03-18T06:52:12;100197.34;;;9.76;100.00
4576;BME280;2300;51.874;8.430;2023-03-18T06:54:39;100186.16;;;9.78;100.00
4576;BME280;2300;51.874;8.430;2023-03-18T06:57:05;100197.56;;;9.98;100.00
4576;BME280;2300;51.874;8.430;2023-03-18T06:59:32;100202.94;;;9.93;100.00
4576;BME280;2300;51.874;8.430;2023-03-18T07:01:59;100194.09;;;9.91;100.00
4576;BME280;2300;51.874;8.430;2023-03-18T07:04:27;100203.66;;;10.00;100.00
4576;BME280;2300;51.874;8.430;2023-03-18T07:06:55;100198.88;;;10.07;100.00
4576;BME280;2300;51.874;8.430;2023-03-18T07:09:22;100205.06;;;10.14;100.00
4576;BME280;2300;51.874;8.430;2023-03-18T07:11:48;100199.66;;;10.42;100.00
4576;BME280;2300;51.874;8.430;2023-03-18T07:14:15;100205.66;;;10.68;100.00
4576;BME280;2300;51.874;8.430;2023-03-18T07:16:42;100205.88;;;10.95;98.87
4576;BME280;2300;51.874;8.430;2023-03-18T07:19:08;100214.59;;;11.03;98.04
4576;BME280;2300;51.874;8.430;2023-03-18T07:21:37;100216.09;;;11.11;97.61
4576;BME280;2300;51.874;8.430;2023-03-18T07:24:04;100222.59;;;11.21;97.29
4576;BME280;2300;51.874;8.430;2023-03-18T07:26:31;100227.09;;;11.27;96.73
4576;BME280;2300;51.874;8.430;2023-03-18T07:28:57;100231.28;;;11.47;96.79
4576;BME280;2300;51.874;8.430;2023-03-18T07:31:24;100241.09;;;11.71;96.04
4576;BME280;2300;51.874;8.430;2023-03-18T07:33:50;100236.47;;;11.60;95.08
4576;BME280;2300;51.874;8.430;2023-03-18T07:36:17;100245.47;;;11.72;94.76
4576;BME280;2300;51.874;8.430;2023-03-18T07:38:44;100248.31;;;11.77;94.59
4576;BME280;2300;51.874;8.430;2023-03-18T07:41:11;100255.16;;;11.91;93.71
4576;BME280;2300;51.874;8.430;2023-03-18T07:43:37;100259.06;;;11.95;93.54
4576;BME280;2300;51.874;8.430;2023-03-18T07:46:04;100255.16;;;11.91;93.05
4576;BME280;2300;51.874;8.430;2023-03-18T07:48:30;100264.72;;;11.89;92.82
4576;BME280;2300;51.874;8.430;2023-03-18T07:50:58;100266.16;;;11.91;92.34
4576;BME280;2300;51.874;8.430;2023-03-18T07:53:25;100272.97;;;12.05;92.22
4576;BME280;2300;51.874;8.430;2023-03-18T07:55:53;100278.81;;;12.09;91.57
4576;BME280;2300;51.874;8.430;2023-03-18T07:58:19;100264.78;;;12.10;90.88
4576;BME280;2300;51.874;8.430;2023-03-18T08:00:46;100272.13;;;12.22;90.00
4576;BME280;2300;51.874;8.430;2023-03-18T08:03:13;100268.56;;;12.43;90.28
4576;BME280;2300;51.874;8.430;2023-03-18T08:05:40;100274.00;;;12.38;89.66
4576;BME280;2300;51.874;8.430;2023-03-18T08:08:06;100279.19;;;12.56;88.92
4576;BME280;2300;51.874;8.430;2023-03-18T08:10:32;100277.59;;;12.60;88.97
4576;BME280;2300;51.874;8.430;2023-03-18T08:13:00;100282.81;;;12.40;88.63
4576;BME280;2300;51.874;8.430;2023-03-18T08:15:28;100267.59;;;12.32;88.87
4576;BME280;2300;51.874;8.430;2023-03-18T08:17:55;100281.06;;;12.50;88.73
4576;BME280;2300;51.874;8.430;2023-03-18T08:20:22;100281.72;;;12.58;88.96
4576;BME280;2300;51.874;8.430;2023-03-18T08:22:48;100277.03;;;12.58;88.75
4576;BME280;2300;51.874;8.430;2023-03-18T08:25:15;100286.31;;;12.74;88.65
4576;BME280;2300;51.874;8.430;2023-03-18T08:27:42;100289.03;;;12.90;87.97
4576;BME280;2300;51.874;8.430;2023-03-18T08:30:11;100287.75;;;12.98;87.16
4576;BME280;2300;51.874;8.430;2023-03-18T08:32:39;100296.00;;;12.76;86.79
4576;BME280;2300;51.874;8.430;2023-03-18T08:35:06;100293.28;;;12.81;87.06
4576;BME280;2300;51.874;8.430;2023-03-18T08:37:34;100302.50;;;12.87;87.13
4576;BME280;2300;51.874;8.430;2023-03-18T08:40:00;100298.47;;;12.94;87.21
4576;BME280;2300;51.874;8.430;2023-03-18T08:42:27;100294.97;;;12.82;86.34
4576;BME280;2300;51.874;8.430;2023-03-18T08:44:54;100293.38;;;12.86;86.62
4576;BME280;2300;51.874;8.430;2023-03-18T08:47:22;100303.56;;;13.08;86.92
4576;BME280;2300;51.874;8.430;2023-03-18T08:49:49;100308.63;;;13.16;85.90
4576;BME280;2300;51.874;8.430;2023-03-18T08:52:16;100302.06;;;13.22;85.49
4576;BME280;2300;51.874;8.430;2023-03-18T08:54:42;100316.13;;;13.20;84.97
4576;BME280;2300;51.874;8.430;2023-03-18T08:57:10;100314.22;;;13.21;85.17
4576;BME280;2300;51.874;8.430;2023-03-18T08:59:36;100316.38;;;13.19;84.67
4576;BME280;2300;51.874;8.430;2023-03-18T09:02:03;100313.75;;;13.07;85.28
4576;BME280;2300;51.874;8.430;2023-03-18T09:04:31;100317.09;;;13.09;84.50
4576;BME280;2300;51.874;8.430;2023-03-18T09:06:58;100320.69;;;13.10;83.96
4576;BME280;2300;51.874;8.430;2023-03-18T09:09:25;100306.66;;;12.89;84.35
4576;BME280;2300;51.874;8.430;2023-03-18T09:11:52;100327.16;;;12.99;84.77
4576;BME280;2300;51.874;8.430;2023-03-18T09:14:18;100330.34;;;12.90;84.38
4576;BME280;2300;51.874;8.430;2023-03-18T09:16:45;100304.16;;;12.88;84.08
4576;BME280;2300;51.874;8.430;2023-03-18T09:19:11;100330.63;;;13.11;84.53
4576;BME280;2300;51.874;8.430;2023-03-18T09:21:39;100336.44;;;13.36;83.88
4576;BME280;2300;51.874;8.430;2023-03-18T09:24:06;100329.00;;;13.68;83.02
4576;BME280;2300;51.874;8.430;2023-03-18T09:26:33;100335.34;;;13.96;82.60
4576;BME280;2300;51.874;8.430;2023-03-18T09:28:59;100329.94;;;14.06;81.91
4576;BME280;2300;51.874;8.430;2023-03-18T09:31:26;100326.75;;;14.19;79.76
4576;BME280;2300;51.874;8.430;2023-03-18T09:33:52;100334.19;;;14.18;80.60
4576;BME280;2300;51.874;8.430;2023-03-18T09:36:19;100331.38;;;14.13;80.77
4576;BME280;2300;51.874;8.430;2023-03-18T09:38:46;100327.81;;;13.86;80.56
4576;BME280;2300;51.874;8.430;2023-03-18T09:41:22;100322.75;;;13.46;80.94
4576;BME280;2300;51.874;8.430;2023-03-18T09:44:01;100331.91;;;13.52;82.51
4576;BME280;2300;51.874;8.430;2023-03-18T09:46:37;100337.00;;;13.65;81.56
4576;BME280;2300;51.874;8.430;2023-03-18T09:49:29;100337.09;;;13.75;81.04
4576;BME280;2300;51.874;8.430;2023-03-18T09:52:11;100351.63;;;14.24;80.14
4576;BME280;2300;51.874;8.430;2023-03-18T09:54:42;100344.00;;;14.41;79.21
4576;BME280;2300;51.874;8.430;2023-03-18T09:57:13;100343.63;;;14.70;78.31
4576;BME280;2300;51.874;8.430;2023-03-18T09:59:44;100348.03;;;15.18;78.02
4576;BME280;2300;51.874;8.430;2023-03-18T10:02:19;100343.44;;;15.43;76.26
4576;BME280;2300;51.874;8.430;2023-03-18T10:04:51;100352.34;;;15.96;75.70
4576;BME280;2300;51.874;8.430;2023-03-18T10:07:22;100357.31;;;15.64;74.35
4576;BME280;2300;51.874;8.430;2023-03-18T10:09:54;100364.16;;;15.46;74.61
4576;BME280;2300;51.874;8.430;2023-03-18T10:12:29;100342.22;;;15.19;75.38
4576;BME280;2300;51.874;8.430;2023-03-18T10:15:03;100358.84;;;15.29;75.03
4576;BME280;2300;51.874;8.430;2023-03-18T10:17:36;100355.53;;;15.27;75.20
4576;BME280;2300;51.874;8.430;2023-03-18T10:20:17;100344.88;;;14.99;75.03
4576;BME280;2300;51.874;8.430;2023-03-18T10:22:59;100362.44;;;15.30;74.96
4576;BME280;2300;51.874;8.430;2023-03-18T10:25:34;100366.66;;;15.42;74.12
4576;BME280;2300;51.874;8.430;2023-03-18T10:28:17;100366.41;;;15.44;74.39
4576;BME280;2300;51.874;8.430;2023-03-18T10:30:59;100361.97;;;15.43;74.00
4576;BME280;2300;51.874;8.430;2023-03-18T10:33:35;100369.97;;;15.49;73.79
4576;BME280;2300;51.874;8.430;2023-03-18T10:36:04;100360.06;;;15.54;73.17
4576;BME280;2300;51.874;8.430;2023-03-18T10:38:36;100357.31;;;15.69;72.97
4576;BME280;2300;51.874;8.430;2023-03-18T10:41:14;100360.63;;;15.86;73.38
4576;BME280;2300;51.874;8.430;2023-03-18T10:43:42;100367.31;;;15.85;72.60
4576;BME280;2300;51.874;8.430;2023-03-18T10:46:13;100367.03;;;16.02;73.53
4576;BME280;2300;51.874;8.430;2023-03-18T10:48:43;100364.59;;;16.10;72.25
4576;BME280;2300;51.874;8.430;2023-03-18T10:51:15;100359.59;;;16.43;71.98
4576;BME280;2300;51.874;8.430;2023-03-18T10:53:45;100372.81;;;16.76;71.24
4576;BME280;2300;51.874;8.430;2023-03-18T10:56:16;100372.81;;;16.76;69.73
4576;BME280;2300;51.874;8.430;2023-03-18T10:58:43;100370.66;;;16.38;69.32
4576;BME280;2300;51.874;8.430;2023-03-18T11:01:13;100381.19;;;16.41;70.52
4576;BME280;2300;51.874;8.430;2023-03-18T11:03:43;100374.81;;;16.35;70.17
4576;BME280;2300;51.874;8.430;2023-03-18T11:06:16;100369.56;;;16.23;69.58
4576;BME280;2300;51.874;8.430;2023-03-18T11:08:46;100360.69;;;16.01;69.79
4576;BME280;2300;51.874;8.430;2023-03-18T11:11:19;100366.16;;;15.81;71.62
4576;BME280;2300;51.874;8.430;2023-03-18T11:13:48;100372.03;;;15.95;71.38
4576;BME280;2300;51.874;8.430;2023-03-18T11:16:22;100369.28;;;16.25;70.57
4576;BME280;2300;51.874;8.430;2023-03-18T11:18:50;100373.97;;;16.40;69.35
4576;BME280;2300;51.874;8.430;2023-03-18T11:21:19;100358.44;;;16.54;68.56
4576;BME280;2300;51.874;8.430;2023-03-18T11:23:50;100359.56;;;16.63;68.92
4576;BME280;2300;51.874;8.430;2023-03-18T11:26:43;100361.22;;;16.44;68.53
4576;BME280;2300;51.874;8.430;2023-03-18T11:29:12;100371.72;;;16.72;69.76
4576;BME280;2300;51.874;8.430;2023-03-18T11:31:48;100377.78;;;17.04;67.66
4576;BME280;2300;51.874;8.430;2023-03-18T11:34:16;100372.22;;;16.84;67.55
4576;BME280;2300;51.874;8.430;2023-03-18T11:36:51;100368.88;;;16.97;67.91
4576;BME280;2300;51.874;8.430;2023-03-18T11:39:18;100360.50;;;17.17;67.30
4576;BME280;2300;51.874;8.430;2023-03-18T11:41:46;100367.84;;;17.47;67.31
4576;BME280;2300;51.874;8.430;2023-03-18T11:44:15;100362.81;;;17.54;66.58
4576;BME280;2300;51.874;8.430;2023-03-18T11:46:45;100357.97;;;17.75;66.20
4576;BME280;2300;51.874;8.430;2023-03-18T11:49:14;100363.78;;;17.35;65.54
4576;BME280;2300;51.874;8.430;2023-03-18T11:51:45;100344.47;;;17.09;66.06
4576;BME280;2300;51.874;8.430;2023-03-18T11:54:26;100341.97;;;17.03;66.47
4576;BME280;2300;51.874;8.430;2023-03-18T11:57:01;100350.50;;;17.22;66.92
4576;BME280;2300;51.874;8.430;2023-03-18T11:59:52;100353.19;;;17.37;66.82
4576;BME280;2300;51.874;8.430;2023-03-18T12:02:37;100336.59;;;17.27;65.70
4576;BME280;2300;51.874;8.430;2023-03-18T12:05:20;100353.91;;;17.08;66.20
4576;BME280;2300;51.874;8.430;2023-03-18T12:08:04;100352.44;;;17.21;66.71
4576;BME280;2300;51.874;8.430;2023-03-18T12:10:39;100343.59;;;17.19;66.48
4576;BME280;2300;51.874;8.430;2023-03-18T12:13:24;100343.22;;;17.41;66.47
4576;BME280;2300;51.874;8.430;2023-03-18T12:16:00;100342.53;;;17.59;65.79
4576;BME280;2300;51.874;8.430;2023-03-18T12:18:38;100333.63;;;17.03;64.81
4576;BME280;2300;51.874;8.430;2023-03-18T12:21:26;100350.06;;;16.79;65.88
4576;BME280;2300;51.874;8.430;2023-03-18T12:24:07;100346.75;;;16.77;65.61
4576;BME280;2300;51.874;8.430;2023-03-18T12:26:44;100319.28;;;16.81;67.19
4576;BME280;2300;51.874;8.430;2023-03-18T12:29:34;100334.47;;;17.13;67.15
4576;BME280;2300;51.874;8.430;2023-03-18T12:32:10;100342.72;;;17.29;65.04
4576;BME280;2300;51.874;8.430;2023-03-18T12:34:55;100335.91;;;17.55;65.08
4576;BME280;2300;51.874;8.430;2023-03-18T12:37:32;100320.44;;;17.39;64.71
4576;BME280;2300;51.874;8.430;2023-03-18T12:40:12;100334.56;;;17.86;63.92
4576;BME280;2300;51.874;8.430;2023-03-18T12:42:50;100336.75;;;17.89;64.99
4576;BME280;2300;51.874;8.430;2023-03-18T12:45:25;100336.91;;;17.69;63.46
4576;BME280;2300;51.874;8.430;2023-03-18T12:47:55;100324.44;;;17.17;65.32
4576;BME280;2300;51.874;8.430;2023-03-18T12:50:29;100320.16;;;16.76;65.28
4576;BME280;2300;51.874;8.430;2023-03-18T12:53:00;100321.81;;;16.72;66.21
4576;BME280;2300;51.874;8.430;2023-03-18T12:55:30;100292.34;;;16.91;66.71
4576;BME280;2300;51.874;8.430;2023-03-18T12:58:02;100301.19;;;17.08;65.85
4576;BME280;2300;51.874;8.430;2023-03-18T13:00:34;100323.66;;;17.61;65.85
4576;BME280;2300;51.874;8.430;2023-03-18T13:03:15;100296.34;;;17.34;65.06
4576;BME280;2300;51.874;8.430;2023-03-18T13:05:49;100316.41;;;17.65;64.61
4576;BME280;2300;51.874;8.430;2023-03-18T13:08:38;100323.91;;;17.10;64.02
4576;BME280;2300;51.874;8.430;2023-03-18T13:11:11;100326.59;;;17.36;64.43
4576;BME280;2300;51.874;8.430;2023-03-18T13:13:44;100321.47;;;17.53;63.01
4576;BME280;2300;51.874;8.430;2023-03-18T13:16:18;100323.72;;;17.51;63.25
4576;BME280;2300;51.874;8.430;2023-03-18T13:18:47;100325.56;;;17.66;63.99
4576;BME280;2300;51.874;8.430;2023-03-18T13:21:19;100326.47;;;17.56;64.14
4576;BME280;2300;51.874;8.430;2023-03-18T13:24:06;100322.19;;;17.30;65.05